MST,Max TemperatureF,Mean TemperatureF,Min TemperatureF,Max Dew PointF,MeanDew PointF,Min DewpointF,Max Humidity, Mean Humidity, Min Humidity, Max Sea Level PressureIn, Mean Sea Level PressureIn, Min Sea Level PressureIn, Max VisibilityMiles, Mean VisibilityMiles, Min VisibilityMiles, Max Wind SpeedMPH, Mean Wind SpeedMPH, Max Gust SpeedMPH,PrecipitationIn, CloudCover, Events, WindDirDegrees
2013-2-1,29,16,2,27,19,-2,100,88,73,30.15,30.03,29.91,10,4,0,18,7,,0.08,8,Fog-Snow,245
2013-2-2,35,27,19,28,24,18,96,80,69,30.27,30.18,30.05,10,10,7,26,9,34,T,6,,286
2013-2-3,26,17,8,17,12,7,95,87,75,30.08,29.96,29.83,10,8,0,10,2,,0.00,4,Fog,68
2013-2-4,39,29,18,30,22,16,93,82,70,29.98,29.82,29.65,10,10,6,18,5,,0.00,5,,272
2013-2-5,32,25,17,25,21,15,89,83,72,30.04,29.91,29.66,10,10,10,13,7,,0.00,4,,57
2013-2-6,38,25,12,29,20,10,100,88,65,30.07,29.86,29.65,10,7,0,13,5,,0.00,2,Fog,290
2013-2-7,27,23,19,25,21,16,96,90,80,30.18,30.08,29.94,9,3,0,9,4,,0.00,5,Fog,82
2013-2-8,32,19,6,27,13,3,93,88,82,30.06,29.99,29.91,10,5,0,9,3,,0.00,1,Fog,234
2013-2-9,32,18,4,25,13,3,96,88,78,30.03,29.93,29.87,10,6,0,12,6,,0.00,5,Fog,242
2013-2-10,31,25,19,27,17,12,88,76,68,30.23,30.06,29.84,10,10,6,23,12,28,T,8,Snow,313
2013-2-11,30,18,5,19,13,2,88,78,64,30.21,30.06,29.95,10,10,7,10,6,,T,2,Snow,247
2013-2-12,35,26,16,27,20,12,96,80,67,30.04,29.97,29.81,10,10,10,15,9,,0.00,4,,248
2013-2-13,40,30,20,31,26,20,92,76,65,30.00,29.82,29.68,10,10,8,25,10,34,0.01,4,,279
2013-2-14,32,22,11,25,18,8,84,75,69,30.43,30.32,29.98,10,10,9,23,15,36,T,6,,305
2013-2-15,34,22,10,25,17,8,88,78,64,30.47,30.31,30.04,10,10,7,16,2,,0.00,5,,250
2013-2-16,42,33,24,31,26,23,92,80,65,30.05,29.92,29.68,10,10,10,13,9,,0.00,1,,252
2013-2-17,36,29,22,31,26,17,96,82,74,30.03,29.69,29.53,10,9,2,25,10,37,T,6,Snow,306
2013-2-18,23,12,0,18,8,-4,86,74,63,30.43,30.22,29.96,10,10,7,15,8,,0.00,6,,29
2013-2-19,10,2,-6,0,-5,-11,83,72,61,30.43,30.31,30.16,10,10,10,23,12,30,0.00,1,,76
2013-2-20,18,11,4,8,3,-3,81,72,62,30.16,30.12,30.08,10,10,10,14,10,,0.00,1,,71
2013-2-21,22,12,2,13,7,-1,88,76,63,30.19,30.11,29.94,10,10,7,9,2,,0.00,4,,80
2013-2-22,39,22,5,25,15,2,92,81,57,30.03,29.90,29.70,10,9,6,9,3,,0.00,1,,66
2013-2-23,43,31,18,29,23,14,89,74,58,29.90,29.72,29.63,10,10,10,16,4,,0.00,5,,272
2013-2-24,39,31,23,25,22,19,84,73,55,30.16,30.07,29.95,10,10,7,13,8,,0.00,0,,253
2013-2-25,45,32,18,28,23,16,92,75,43,30.00,29.90,29.83,10,10,10,6,2,,0.00,1,,94
2013-2-26,34,31,27,27,25,22,92,80,73,30.26,30.06,29.86,10,9,6,20,9,24,0.00,6,,280
2013-2-27,31,28,25,25,23,21,93,81,72,30.37,30.30,30.20,10,9,5,9,5,,0.00,8,,10
2013-2-28,39,30,21,27,23,19,93,81,57,30.34,30.26,30.16,10,7,2,13,6,,0.00,2,,3